Time;durP1;ratioP1;P1;durP2;ratioP2;P2;SDS_P1;SDS_P2;PMS_P1;PMS_P2;Temp;Humidity;BMP_temperature;BMP_pressure;BME280_temperature;BME280_humidity;BME280_pressure;Samples;Min_cycle;Max_cycle;Signal;HPM_P1;HPM_P2
2023/05/10 00:04:58;;;;;;;12.20;9.60;;;23.40;57.50;;;;;;222840;1263;26560;-58
2023/05/10 00:10:04;;;;;;;11.40;9.00;;;23.40;57.60;;;;;;222340;1266;22511;-57
2023/05/10 00:15:09;;;;;;;11.50;9.80;;;23.40;57.20;;;;;;222615;1263;24205;-57
2023/05/10 00:20:14;;;;;;;14.80;9.50;;;23.50;57.20;;;;;;222733;1266;24192;-58
2023/05/10 00:25:18;;;;;;;13.00;9.50;;;23.50;56.90;;;;;;222332;1256;23938;-58
2023/05/10 00:30:23;;;;;;;9.70;8.50;;;23.60;57.00;;;;;;222188;1260;22513;-57
2023/05/10 00:35:27;;;;;;;15.20;9.00;;;23.60;56.70;;;;;;222540;1265;22506;-58
2023/05/10 00:40:31;;;;;;;11.10;8.50;;;23.60;56.80;;;;;;222476;1264;25386;-58
2023/05/10 00:45:41;;;;;;;11.00;9.00;;;23.60;56.90;;;;;;222772;1252;24237;-56
2023/05/10 00:50:45;;;;;;;11.00;9.00;;;23.50;56.80;;;;;;223185;1261;22520;-57
2023/05/10 00:55:50;;;;;;;10.00;8.30;;;23.60;56.50;;;;;;228696;1258;22522;-58
2023/05/10 01:00:58;;;;;;;10.60;7.70;;;23.60;56.50;;;;;;228328;1265;24206;-58
2023/05/10 01:06:03;;;;;;;10.80;8.70;;;23.70;55.70;;;;;;222635;1253;24806;-59
2023/05/10 01:11:07;;;;;;;13.50;9.50;;;23.60;55.70;;;;;;222598;1266;23781;-59
2023/05/10 01:16:11;;;;;;;11.10;8.10;;;23.60;55.80;;;;;;222580;1266;22627;-58
2023/05/10 01:21:58;;;;;;;10.60;8.00;;;23.50;55.90;;;;;;222569;1254;24256;-58
2023/05/10 01:27:33;;;;;;;8.90;8.00;;;23.40;55.70;;;;;;222680;1263;22548;-59
2023/05/10 01:32:40;;;;;;;8.10;7.30;;;23.40;55.50;;;;;;222777;1263;22623;-58
2023/05/10 01:38:04;;;;;;;11.40;7.50;;;23.40;55.10;;;;;;222551;1266;22636;-56
2023/05/10 01:43:16;;;;;;;9.00;7.60;;;23.50;55.10;;;;;;222817;1263;22530;-59
2023/05/10 01:48:22;;;;;;;8.10;7.00;;;23.50;55.10;;;;;;222574;1263;23013;-58
2023/05/10 01:53:27;;;;;;;8.80;7.30;;;23.50;55.50;;;;;;222661;1261;23953;-59
2023/05/10 01:58:35;;;;;;;7.60;6.80;;;23.60;56.20;;;;;;222611;1263;22613;-58
2023/05/10 02:03:42;;;;;;;9.10;7.10;;;23.70;55.80;;;;;;222578;1266;25213;-58
2023/05/10 02:08:48;;;;;;;7.70;6.40;;;23.70;55.60;;;;;;222511;1263;24218;-57
2023/05/10 02:13:55;;;;;;;7.40;6.70;;;23.70;55.30;;;;;;222371;1263;395037;-58
2023/05/10 02:19:04;;;;;;;8.00;6.90;;;23.70;55.80;;;;;;222659;1263;22910;-59
2023/05/10 02:24:09;;;;;;;8.30;6.80;;;23.70;55.30;;;;;;222930;1253;22524;-58
2023/05/10 02:29:15;;;;;;;7.60;6.80;;;23.70;55.40;;;;;;223307;1263;22533;-63
2023/05/10 02:34:22;;;;;;;7.20;6.40;;;23.70;55.40;;;;;;222492;1263;23442;-58
2023/05/10 02:39:29;;;;;;;6.90;6.10;;;23.70;55.50;;;;;;222711;1263;22507;-57
2023/05/10 02:44:37;;;;;;;8.40;6.50;;;23.70;55.60;;;;;;222635;1266;23300;-58
2023/05/10 02:49:41;;;;;;;7.10;6.40;;;23.70;55.30;;;;;;224903;1261;22531;-59
2023/05/10 02:54:50;;;;;;;7.60;5.70;;;23.70;54.80;;;;;;226086;1267;22629;-59
2023/05/10 02:59:55;;;;;;;7.10;6.40;;;23.70;54.60;;;;;;223365;1263;25304;-58
2023/05/10 03:04:59;;;;;;;6.40;5.80;;;23.70;54.70;;;;;;222398;1266;24173;-58
2023/05/10 03:10:05;;;;;;;7.70;6.40;;;23.70;54.60;;;;;;222030;1266;22943;-57
2023/05/10 03:15:33;;;;;;;6.20;5.60;;;23.70;54.80;;;;;;222373;1266;22507;-58
2023/05/10 03:20:48;;;;;;;6.30;5.60;;;23.60;55.00;;;;;;222610;1267;22523;-59
2023/05/10 03:25:53;;;;;;;7.80;6.20;;;23.60;54.70;;;;;;222485;1264;22925;-59
2023/05/10 03:30:58;;;;;;;7.30;5.20;;;23.60;55.00;;;;;;222538;1266;22571;-58
2023/05/10 03:36:03;;;;;;;6.70;6.00;;;23.60;55.20;;;;;;222359;1269;25492;-58
2023/05/10 03:41:07;;;;;;;9.00;5.80;;;23.60;55.00;;;;;;222445;1266;22507;-59
2023/05/10 03:46:12;;;;;;;6.50;5.10;;;23.60;55.60;;;;;;222132;1268;22634;-59
2023/05/10 03:51:16;;;;;;;6.20;5.60;;;23.70;55.40;;;;;;222417;1254;22607;-57
2023/05/10 03:56:20;;;;;;;6.50;5.80;;;23.80;54.60;;;;;;222573;1263;25228;-57
2023/05/10 04:01:25;;;;;;;7.70;6.40;;;23.80;54.50;;;;;;222372;1266;24334;-58
2023/05/10 04:06:30;;;;;;;6.60;5.40;;;23.90;54.40;;;;;;222483;1259;22550;-57
2023/05/10 04:11:34;;;;;;;6.20;5.30;;;23.90;54.30;;;;;;222637;1257;22588;-60
2023/05/10 04:16:39;;;;;;;8.70;6.00;;;23.90;54.90;;;;;;222526;1266;25310;-59
2023/05/10 04:21:43;;;;;;;6.00;5.50;;;23.80;54.60;;;;;;222476;1267;22606;-58
2023/05/10 04:26:47;;;;;;;6.20;5.40;;;23.90;54.90;;;;;;222501;1267;24164;-59
2023/05/10 04:31:51;;;;;;;6.90;4.80;;;23.80;54.30;;;;;;222637;1268;22509;-59
2023/05/10 04:36:56;;;;;;;5.60;5.10;;;23.90;54.40;;;;;;222363;1268;22518;-59
2023/05/10 04:42:02;;;;;;;5.10;4.60;;;23.80;54.60;;;;;;223184;1268;25536;-59
2023/05/10 04:47:06;;;;;;;5.30;4.80;;;23.80;54.20;;;;;;222683;1266;22712;-59
2023/05/10 04:52:14;;;;;;;5.50;5.00;;;23.80;54.00;;;;;;222711;1266;25404;-57
2023/05/10 04:57:19;;;;;;;4.90;4.40;;;23.80;54.00;;;;;;222686;1266;22516;-57
2023/05/10 05:02:23;;;;;;;4.40;4.00;;;23.70;54.10;;;;;;222319;1268;25392;-59
2023/05/10 05:07:27;;;;;;;5.00;4.50;;;23.70;53.80;;;;;;222682;1254;24244;-59
2023/05/10 05:12:32;;;;;;;5.10;4.50;;;23.70;53.70;;;;;;222481;1269;25375;-58
2023/05/10 05:17:36;;;;;;;5.30;4.80;;;23.70;53.70;;;;;;229997;1266;22255;-59
2023/05/10 05:22:40;;;;;;;5.00;4.50;;;23.80;53.30;;;;;;226631;1266;23918;-59
2023/05/10 05:27:45;;;;;;;5.40;4.90;;;23.90;53.10;;;;;;222974;1263;22513;-59
2023/05/10 05:32:49;;;;;;;4.10;3.70;;;23.90;53.30;;;;;;222952;1259;22531;-59
2023/05/10 05:37:53;;;;;;;5.20;4.30;;;23.80;53.50;;;;;;222644;1268;22525;-59
2023/05/10 05:42:57;;;;;;;5.40;4.30;;;23.80;53.90;;;;;;222535;1246;24186;-59
2023/05/10 05:48:02;;;;;;;3.90;3.60;;;23.70;53.80;;;;;;222400;1264;25449;-59
2023/05/10 05:53:06;;;;;;;7.20;4.10;;;23.60;53.50;;;;;;222459;1262;25554;-57
2023/05/10 05:58:11;;;;;;;5.50;4.10;;;23.70;53.40;;;;;;222566;1263;22592;-57
2023/05/10 06:03:15;;;;;;;5.30;4.30;;;23.60;53.60;;;;;;222707;1248;23895;-58
2023/05/10 06:08:20;;;;;;;4.50;4.10;;;23.70;53.50;;;;;;222632;1269;22505;-57
2023/05/10 06:13:31;;;;;;;7.80;4.30;;;23.70;53.70;;;;;;222943;1263;24309;-62
2023/05/10 06:18:36;;;;;;;6.40;4.10;;;23.70;53.90;;;;;;222593;1266;22529;-58
2023/05/10 06:23:40;;;;;;;7.80;3.70;;;23.70;54.00;;;;;;222704;1263;23886;-59
2023/05/10 06:28:44;;;;;;;6.60;4.00;;;23.70;52.80;;;;;;222305;1264;22515;-59
2023/05/10 06:34:13;;;;;;;6.40;4.60;;;23.70;52.90;;;;;;222487;1248;22508;-59
2023/05/10 06:39:18;;;;;;;11.60;4.50;;;23.70;52.60;;;;;;222934;1267;22614;-58
2023/05/10 06:44:22;;;;;;;6.60;3.70;;;23.80;54.00;;;;;;222591;1256;22522;-58
2023/05/10 06:49:27;;;;;;;68.50;33.70;;;23.80;53.30;;;;;;222497;1269;22523;-60
2023/05/10 06:54:31;;;;;;;76.50;33.80;;;23.70;53.10;;;;;;222803;1265;27636;-58
2023/05/10 06:59:36;;;;;;;62.90;29.60;;;23.80;51.70;;;;;;222640;1255;22555;-58
2023/05/10 07:04:40;;;;;;;54.00;26.00;;;23.80;51.90;;;;;;222448;1269;22624;-58
2023/05/10 07:09:45;;;;;;;44.90;22.20;;;23.60;51.30;;;;;;222375;1266;22585;-59
2023/05/10 07:14:49;;;;;;;35.00;18.40;;;23.80;50.70;;;;;;222628;1253;25219;-62
2023/05/10 07:19:53;;;;;;;39.40;17.80;;;23.40;47.80;;;;;;222330;1258;22515;-58
2023/05/10 07:24:58;;;;;;;39.90;16.50;;;23.40;49.20;;;;;;222464;1267;22509;-59
2023/05/10 07:30:02;;;;;;;33.30;16.20;;;23.40;49.50;;;;;;222510;1266;23363;-58
2023/05/10 07:35:07;;;;;;;26.70;15.10;;;23.40;49.70;;;;;;222351;1263;25384;-59
2023/05/10 07:40:11;;;;;;;34.40;16.30;;;23.40;50.10;;;;;;222062;1268;23016;-59
2023/05/10 07:45:15;;;;;;;28.20;15.20;;;23.40;50.20;;;;;;222102;1267;22620;-60
2023/05/10 07:50:21;;;;;;;32.20;15.40;;;23.40;50.30;;;;;;222397;1269;22515;-58
2023/05/10 07:55:26;;;;;;;30.90;14.40;;;23.50;50.80;;;;;;222277;1263;25570;-58
2023/05/10 08:00:30;;;;;;;34.80;15.20;;;23.60;50.30;;;;;;222209;1264;22648;-59
2023/05/10 08:05:35;;;;;;;25.90;14.30;;;23.60;50.30;;;;;;222238;1266;24189;-59
2023/05/10 08:10:39;;;;;;;35.60;16.00;;;23.50;50.50;;;;;;222324;1264;23479;-60
2023/05/10 08:15:43;;;;;;;29.80;13.90;;;23.50;50.60;;;;;;222752;1266;22554;-59
2023/05/10 08:20:48;;;;;;;31.70;14.50;;;23.50;51.00;;;;;;222910;1268;22591;-58
2023/05/10 08:25:52;;;;;;;28.50;14.30;;;23.50;50.60;;;;;;222782;1268;24312;-58
2023/05/10 08:30:56;;;;;;;31.10;14.90;;;23.50;50.80;;;;;;222458;1269;24206;-59
2023/05/10 08:36:00;;;;;;;27.10;13.00;;;23.50;50.90;;;;;;222628;1268;22518;-59
2023/05/10 08:41:05;;;;;;;27.50;14.00;;;23.50;51.00;;;;;;222467;1269;23884;-57
2023/05/10 08:46:10;;;;;;;28.10;12.70;;;23.50;50.70;;;;;;222589;1269;26239;-59
2023/05/10 08:51:21;;;;;;;24.80;12.10;;;23.50;51.10;;;;;;222613;1269;23674;-58
2023/05/10 08:56:26;;;;;;;32.60;14.20;;;23.50;51.40;;;;;;222503;1264;22523;-59
2023/05/10 09:01:32;;;;;;;26.90;13.00;;;23.50;54.40;;;;;;222562;1269;22619;-57
2023/05/10 09:06:37;;;;;;;27.10;12.70;;;23.60;55.10;;;;;;222786;1266;22516;-57
2023/05/10 09:11:41;;;;;;;24.00;12.60;;;23.60;55.10;;;;;;222469;1268;22789;-58
2023/05/10 09:16:46;;;;;;;27.10;12.60;;;23.70;53.80;;;;;;222700;1269;24210;-58
2023/05/10 09:21:50;;;;;;;26.10;11.80;;;23.70;53.40;;;;;;222497;1267;24186;-59
2023/05/10 09:26:57;;;;;;;22.20;11.80;;;23.80;53.20;;;;;;222461;1244;22543;-55
2023/05/10 09:32:01;;;;;;;24.30;11.90;;;23.80;52.90;;;;;;222399;1269;22561;-59
2023/05/10 09:37:06;;;;;;;20.60;11.40;;;23.80;52.80;;;;;;222278;1263;23274;-58
2023/05/10 09:42:10;;;;;;;17.40;10.70;;;23.80;52.60;;;;;;222596;1268;25204;-65
2023/05/10 09:47:21;;;;;;;18.30;9.90;;;23.70;52.10;;;;;;222566;1263;22518;-58
2023/05/10 09:52:25;;;;;;;17.00;10.10;;;23.60;51.70;;;;;;222335;1268;22518;-59
2023/05/10 09:57:29;;;;;;;16.60;9.20;;;23.60;51.10;;;;;;223000;1267;22589;-58
2023/05/10 10:02:37;;;;;;;16.40;10.20;;;23.70;51.30;;;;;;222314;1267;22533;-58
2023/05/10 10:07:42;;;;;;;16.80;9.00;;;23.70;51.50;;;;;;222415;1264;25622;-58
2023/05/10 10:12:46;;;;;;;17.40;9.40;;;23.70;51.50;;;;;;222642;1267;26132;-61
2023/05/10 10:17:52;;;;;;;13.90;8.90;;;23.70;51.70;;;;;;222859;1268;25258;-61
2023/05/10 10:22:56;;;;;;;15.00;8.50;;;23.70;51.60;;;;;;222676;1269;24357;-59
2023/05/10 10:28:24;;;;;;;13.50;8.50;;;23.70;51.80;;;;;;222481;1267;25367;-58
2023/05/10 10:33:36;;;;;;;15.40;8.50;;;23.80;51.50;;;;;;222479;1264;24244;-64
2023/05/10 10:38:46;;;;;;;15.40;8.60;;;23.90;51.50;;;;;;222979;1269;22520;-61
2023/05/10 10:44:25;;;;;;;15.30;8.20;;;23.90;51.90;;;;;;222278;1264;25376;-60
2023/05/10 10:49:39;;;;;;;13.30;8.80;;;24.00;51.30;;;;;;222268;1267;24365;-59
2023/05/10 10:54:56;;;;;;;11.90;8.30;;;24.00;51.20;;;;;;222441;1264;24190;-58
2023/05/10 11:00:33;;;;;;;19.30;9.70;;;23.90;51.30;;;;;;222306;1264;22515;-59
2023/05/10 11:05:48;;;;;;;13.10;7.50;;;24.00;53.30;;;;;;222517;1269;22512;-60
2023/05/10 11:10:58;;;;;;;12.70;7.60;;;24.00;53.30;;;;;;222564;1264;22527;-59
2023/05/10 11:16:23;;;;;;;12.30;7.30;;;24.00;53.70;;;;;;222598;1266;25430;-58
2023/05/10 11:21:30;;;;;;;13.50;7.00;;;24.10;53.40;;;;;;222324;1263;24215;-61
2023/05/10 11:26:35;;;;;;;15.30;8.00;;;24.10;52.80;;;;;;222402;1254;23774;-60
2023/05/10 11:31:44;;;;;;;10.70;7.30;;;24.20;53.10;;;;;;222363;1254;22533;-59
2023/05/10 11:36:53;;;;;;;12.00;7.00;;;24.20;52.70;;;;;;222479;1264;22520;-60
2023/05/10 11:41:58;;;;;;;10.30;6.80;;;24.30;52.70;;;;;;222847;1254;22514;-60
2023/05/10 11:47:03;;;;;;;11.20;7.60;;;24.30;53.00;;;;;;222459;1254;25325;-58
2023/05/10 11:52:08;;;;;;;14.10;7.00;;;24.30;52.30;;;;;;222227;1263;24410;-59
2023/05/10 11:57:12;;;;;;;11.30;6.20;;;24.30;52.20;;;;;;222543;1263;23873;-61
2023/05/10 12:02:16;;;;;;;11.10;6.70;;;24.30;52.20;;;;;;222469;1263;22621;-61
2023/05/10 12:07:21;;;;;;;10.40;6.20;;;24.30;52.20;;;;;;222641;1258;22584;-60
2023/05/10 12:12:25;;;;;;;12.10;7.10;;;24.30;51.70;;;;;;222641;1264;22602;-60
2023/05/10 12:17:29;;;;;;;13.10;6.40;;;24.40;52.00;;;;;;222604;1264;23911;-59
2023/05/10 12:22:34;;;;;;;9.60;5.70;;;24.40;51.90;;;;;;222508;1266;25258;-59
2023/05/10 12:27:38;;;;;;;10.20;6.20;;;24.30;49.30;;;;;;222224;1263;23341;-59
2023/05/10 12:32:43;;;;;;;9.30;5.40;;;24.10;51.00;;;;;;221864;1266;22516;-59
2023/05/10 12:37:48;;;;;;;13.60;6.30;;;24.30;51.20;;;;;;222457;1261;24190;-60
2023/05/10 12:42:52;;;;;;;8.90;5.80;;;24.50;50.50;;;;;;222373;1268;25363;-60
2023/05/10 12:47:56;;;;;;;8.70;4.70;;;24.40;50.80;;;;;;222367;1262;22518;-60
2023/05/10 12:53:00;;;;;;;8.90;5.70;;;24.30;51.00;;;;;;222224;1264;25099;-60
2023/05/10 12:58:04;;;;;;;12.10;5.00;;;24.40;50.80;;;;;;222476;1267;22508;-60
2023/05/10 13:03:09;;;;;;;8.00;5.30;;;24.50;50.70;;;;;;222381;1269;22587;-59
2023/05/10 13:08:14;;;;;;;6.40;5.00;;;24.50;50.40;;;;;;222239;1254;22662;-60
2023/05/10 13:13:18;;;;;;;9.30;5.30;;;24.40;50.90;;;;;;222503;1254;25321;-59
2023/05/10 13:18:22;;;;;;;6.60;4.80;;;24.40;50.80;;;;;;222210;1265;23242;-59
2023/05/10 13:23:26;;;;;;;6.30;4.50;;;24.50;50.80;;;;;;221888;1263;24361;-61
2023/05/10 13:28:30;;;;;;;6.60;4.60;;;24.40;50.80;;;;;;222302;1267;23124;-59
2023/05/10 13:33:34;;;;;;;5.70;4.20;;;24.40;50.90;;;;;;221915;1254;22510;-60
2023/05/10 13:38:38;;;;;;;7.70;5.20;;;24.40;50.40;;;;;;222718;1258;24215;-60
2023/05/10 13:43:42;;;;;;;6.80;4.90;;;24.40;50.90;;;;;;222484;1264;22521;-60
2023/05/10 13:48:46;;;;;;;7.10;4.70;;;24.40;50.90;;;;;;222153;1264;23933;-58
2023/05/10 13:53:51;;;;;;;7.90;4.80;;;24.30;51.00;;;;;;222504;1266;24199;-60
2023/05/10 13:58:59;;;;;;;6.60;4.50;;;24.30;51.00;;;;;;221804;1269;23016;-59
2023/05/10 14:04:03;;;;;;;8.80;4.70;;;24.30;51.10;;;;;;222309;1268;22643;-59
2023/05/10 14:09:08;;;;;;;6.90;4.80;;;24.20;51.10;;;;;;222486;1263;22728;-59
2023/05/10 14:14:13;;;;;;;5.60;4.00;;;24.20;51.50;;;;;;222159;1261;234293;-61
2023/05/10 14:19:17;;;;;;;4.80;3.90;;;24.20;51.50;;;;;;222791;1254;25479;-60
2023/05/10 14:24:21;;;;;;;4.30;3.90;;;24.30;51.00;;;;;;223019;1268;22525;-62
2023/05/10 14:29:25;;;;;;;6.50;3.90;;;24.20;51.10;;;;;;222726;1260;23912;-60
2023/05/10 14:34:30;;;;;;;6.40;4.00;;;24.20;51.00;;;;;;222445;1262;22613;-61
2023/05/10 14:39:34;;;;;;;6.40;4.10;;;24.20;51.40;;;;;;222464;1263;25364;-59
2023/05/10 14:44:39;;;;;;;4.50;3.80;;;24.20;51.60;;;;;;222388;1268;22536;-58
2023/05/10 14:49:43;;;;;;;4.50;3.30;;;24.10;51.10;;;;;;222926;1263;25472;-63
2023/05/10 14:54:47;;;;;;;8.90;3.80;;;24.10;52.00;;;;;;222401;1261;22561;-60
2023/05/10 14:59:51;;;;;;;3.50;2.90;;;24.10;51.00;;;;;;222812;1254;23564;-60
2023/05/10 15:04:57;;;;;;;5.30;3.60;;;24.10;51.10;;;;;;222557;1266;22512;-59
2023/05/10 15:10:02;;;;;;;5.10;3.50;;;24.10;51.30;;;;;;225150;1265;22522;-59
2023/05/10 15:15:07;;;;;;;6.60;2.80;;;24.10;50.70;;;;;;223011;1266;22643;-58
2023/05/10 15:20:11;;;;;;;11.80;3.00;;;24.20;50.80;;;;;;222730;1268;22520;-58
2023/05/10 15:25:15;;;;;;;5.50;2.90;;;24.10;51.70;;;;;;222437;1263;22508;-57
2023/05/10 15:30:20;;;;;;;5.70;2.90;;;24.20;50.70;;;;;;222302;1263;23132;-57
2023/05/10 15:35:26;;;;;;;4.30;2.60;;;24.10;50.90;;;;;;222230;1263;22675;-58
2023/05/10 15:40:32;;;;;;;8.00;2.70;;;24.20;50.60;;;;;;222399;1266;22918;-58
2023/05/10 15:45:38;;;;;;;7.50;2.40;;;24.20;50.90;;;;;;222409;1262;22567;-58
2023/05/10 15:50:42;;;;;;;8.70;2.50;;;24.20;50.70;;;;;;222112;1269;22750;-58
2023/05/10 15:55:46;;;;;;;6.30;2.40;;;24.20;49.80;;;;;;222040;1263;22614;-58
2023/05/10 16:00:50;;;;;;;7.70;2.60;;;24.20;50.60;;;;;;222163;1263;22760;-57
2023/05/10 16:05:54;;;;;;;8.90;2.50;;;24.40;50.20;;;;;;222197;1268;22516;-59
2023/05/10 16:10:59;;;;;;;4.60;2.30;;;24.40;50.60;;;;;;222142;1260;25442;-59
2023/05/10 16:16:04;;;;;;;10.70;2.10;;;24.40;49.70;;;;;;222619;1267;25160;-59
2023/05/10 16:21:08;;;;;;;2.70;2.10;;;24.30;50.10;;;;;;225609;1256;22862;-58
2023/05/10 16:26:12;;;;;;;4.20;2.40;;;24.40;49.50;;;;;;222316;1259;22508;-57
2023/05/10 16:31:20;;;;;;;7.00;2.60;;;24.30;51.50;;;;;;222041;1266;25265;-56
2023/05/10 16:36:25;;;;;;;9.80;2.10;;;24.30;52.70;;;;;;222339;1269;25438;-59
2023/05/10 16:42:22;;;;;;;9.60;2.90;;;24.50;52.90;;;;;;222115;1254;23174;-60
2023/05/10 16:47:26;;;;;;;4.70;2.70;;;24.40;54.10;;;;;;225247;1259;67762;-55
2023/05/10 16:52:32;;;;;;;15.00;2.60;;;24.50;54.30;;;;;;221530;1256;22529;-55
2023/05/10 16:57:35;;;;;;;14.10;2.20;;;24.50;53.40;;;;;;221501;1269;22533;-55
2023/05/10 17:02:40;;;;;;;11.50;2.20;;;24.50;53.30;;;;;;221343;1268;24384;-52
2023/05/10 17:07:45;;;;;;;13.90;3.00;;;24.50;53.30;;;;;;221364;1266;25269;-53
2023/05/10 17:12:50;;;;;;;7.70;2.40;;;24.50;52.90;;;;;;221540;1266;22540;-53
2023/05/10 17:17:54;;;;;;;8.40;2.00;;;24.30;52.70;;;;;;221535;1270;22668;-54
2023/05/10 17:22:59;;;;;;;5.00;2.10;;;24.30;52.20;;;;;;221401;1256;22620;-56
2023/05/10 17:28:03;;;;;;;8.00;2.50;;;24.30;52.00;;;;;;221581;1265;22537;-52
2023/05/10 17:33:07;;;;;;;5.50;2.20;;;24.30;51.80;;;;;;221446;1249;24407;-55
2023/05/10 17:38:11;;;;;;;5.60;2.50;;;24.40;51.70;;;;;;221665;1257;25341;-52
2023/05/10 17:43:15;;;;;;;6.70;3.40;;;24.40;51.00;;;;;;221718;1264;24177;-56
2023/05/10 17:48:19;;;;;;;7.80;2.20;;;24.30;51.10;;;;;;221806;1262;22558;-57
2023/05/10 17:53:23;;;;;;;6.90;2.10;;;24.50;50.90;;;;;;221642;1257;22737;-49
2023/05/10 17:58:27;;;;;;;7.30;2.20;;;24.30;51.00;;;;;;221597;1264;22815;-56
2023/05/10 18:03:31;;;;;;;5.30;2.10;;;24.20;51.30;;;;;;221564;1259;25344;-53
2023/05/10 18:08:35;;;;;;;6.90;1.90;;;24.30;51.20;;;;;;221810;1263;22974;-49
2023/05/10 18:13:40;;;;;;;4.80;2.20;;;24.30;51.80;;;;;;221563;1266;23941;-52
2023/05/10 18:18:45;;;;;;;17.00;2.60;;;24.30;51.30;;;;;;221683;1264;22661;-48
2023/05/10 18:23:49;;;;;;;19.00;2.40;;;24.20;52.50;;;;;;221627;1265;22670;-52
2023/05/10 18:28:53;;;;;;;14.90;2.80;;;24.30;52.00;;;;;;221227;1264;22770;-50
2023/05/10 18:33:57;;;;;;;10.50;2.60;;;24.50;51.80;;;;;;221510;1258;25233;-53
2023/05/10 18:39:02;;;;;;;6.90;2.50;;;24.50;51.90;;;;;;221801;1256;23381;-53
2023/05/10 18:44:08;;;;;;;13.60;3.20;;;24.40;53.20;;;;;;221341;1256;22510;-52
2023/05/10 18:49:12;;;;;;;8.60;2.30;;;24.30;53.60;;;;;;221348;1265;22523;-53
2023/05/10 18:54:16;;;;;;;7.80;2.50;;;24.20;53.30;;;;;;221290;1265;25393;-50
2023/05/10 18:59:21;;;;;;;13.10;2.70;;;24.20;53.00;;;;;;221494;1259;22531;-55
2023/05/10 19:04:27;;;;;;;7.60;2.40;;;24.30;53.00;;;;;;221841;1259;24150;-51
2023/05/10 19:09:32;;;;;;;11.30;2.80;;;24.30;52.50;;;;;;226169;1264;24206;-50
2023/05/10 19:14:37;;;;;;;6.40;2.60;;;24.30;52.10;;;;;;221457;1259;22560;-48
2023/05/10 19:19:42;;;;;;;6.90;2.90;;;24.40;52.70;;;;;;221490;1258;22514;-48
2023/05/10 19:24:48;;;;;;;4.60;2.50;;;24.30;52.50;;;;;;221235;1259;22998;-53
2023/05/10 19:29:53;;;;;;;13.20;3.60;;;24.30;52.70;;;;;;221564;1250;24597;-50
2023/05/10 19:34:58;;;;;;;10.10;2.40;;;24.30;52.60;;;;;;221834;1259;25332;-51
2023/05/10 19:40:08;;;;;;;17.30;3.60;;;24.20;53.20;;;;;;221441;1259;24180;-51
2023/05/10 19:45:15;;;;;;;28.60;11.30;;;24.20;53.80;;;;;;221448;1258;22527;-53
2023/05/10 19:50:20;;;;;;;83.80;40.80;;;24.20;53.90;;;;;;221468;1265;23447;-52
2023/05/10 19:55:29;;;;;;;115.50;55.70;;;24.30;53.30;;;;;;221432;1263;24200;-52
2023/05/10 20:00:35;;;;;;;184.70;92.20;;;24.30;53.20;;;;;;221476;1259;22592;-51
2023/05/10 20:05:40;;;;;;;122.00;56.20;;;24.20;53.50;;;;;;221412;1265;22520;-49
2023/05/10 20:10:44;;;;;;;105.00;52.30;;;24.10;53.70;;;;;;221972;1265;25408;-45
2023/05/10 20:15:49;;;;;;;101.90;45.40;;;24.10;53.30;;;;;;221357;1265;24187;-45
2023/05/10 20:20:54;;;;;;;86.20;42.70;;;24.10;53.20;;;;;;221559;1259;25339;-45
2023/05/10 20:25:58;;;;;;;83.20;39.70;;;24.00;53.80;;;;;;221488;1253;22797;-46
2023/05/10 20:31:03;;;;;;;75.90;41.60;;;24.00;53.40;;;;;;221481;1257;23405;-45
2023/05/10 20:36:10;;;;;;;79.50;38.40;;;24.00;54.00;;;;;;221479;1261;24193;-43
2023/05/10 20:41:16;;;;;;;85.00;38.50;;;24.10;54.20;;;;;;221949;1265;23903;-43
2023/05/10 20:46:20;;;;;;;74.60;36.00;;;24.10;54.10;;;;;;221574;1253;22510;-42
2023/05/10 20:51:24;;;;;;;88.60;39.00;;;24.00;54.40;;;;;;221512;1265;22815;-41
2023/05/10 20:56:28;;;;;;;70.80;34.30;;;23.90;55.00;;;;;;221695;1266;22738;-43
2023/05/10 21:01:32;;;;;;;69.80;34.80;;;23.90;54.10;;;;;;221769;1247;24379;-43
2023/05/10 21:06:36;;;;;;;70.50;33.80;;;23.90;54.10;;;;;;221886;1256;23531;-43
2023/05/10 21:11:41;;;;;;;69.30;34.20;;;23.90;54.00;;;;;;221632;1250;22663;-43
2023/05/10 21:16:45;;;;;;;59.40;32.60;;;23.90;55.60;;;;;;221962;1256;23971;-42
2023/05/10 21:21:50;;;;;;;64.50;32.30;;;23.80;55.20;;;;;;221408;1262;23960;-42
2023/05/10 21:26:54;;;;;;;66.40;33.90;;;23.90;55.50;;;;;;221547;1263;24221;-41
2023/05/10 21:31:58;;;;;;;60.60;31.40;;;23.90;55.10;;;;;;222179;1258;22626;-40
2023/05/10 21:37:02;;;;;;;55.80;32.30;;;23.90;55.60;;;;;;221465;1264;25386;-40
2023/05/10 21:42:06;;;;;;;57.80;30.10;;;23.80;55.40;;;;;;221685;1259;22611;-42
2023/05/10 21:47:10;;;;;;;59.90;30.50;;;23.80;55.40;;;;;;221795;1259;22504;-41
2023/05/10 21:52:14;;;;;;;54.00;29.50;;;23.80;55.70;;;;;;221673;1263;22667;-41
2023/05/10 21:57:20;;;;;;;53.20;28.90;;;23.70;55.30;;;;;;221639;1267;24257;-41
2023/05/10 22:02:24;;;;;;;55.00;28.40;;;23.70;55.40;;;;;;221734;1263;22534;-42
2023/05/10 22:07:32;;;;;;;56.60;29.70;;;23.70;55.40;;;;;;221712;1259;25377;-40
2023/05/10 22:12:36;;;;;;;48.40;28.70;;;23.70;55.40;;;;;;221568;1249;24177;-41
2023/05/10 22:17:40;;;;;;;49.50;27.10;;;23.70;55.20;;;;;;222097;1260;25319;-39
2023/05/10 22:22:44;;;;;;;48.40;25.30;;;23.70;55.30;;;;;;221976;1256;22634;-50
2023/05/10 22:27:48;;;;;;;44.30;25.70;;;23.70;55.50;;;;;;221784;1264;22566;-49
2023/05/10 22:32:53;;;;;;;47.00;24.50;;;23.70;55.00;;;;;;221451;1262;22525;-44
2023/05/10 22:37:57;;;;;;;40.50;24.30;;;23.70;56.00;;;;;;221717;1263;24323;-47
2023/05/10 22:43:01;;;;;;;42.90;24.00;;;23.70;55.10;;;;;;221351;1264;22515;-45
2023/05/10 22:48:08;;;;;;;41.70;24.50;;;23.70;55.30;;;;;;221515;1263;23161;-44
2023/05/10 22:53:12;;;;;;;38.80;23.50;;;23.70;55.10;;;;;;221558;1259;25266;-45
2023/05/10 22:58:16;;;;;;;41.10;23.10;;;23.70;55.10;;;;;;221490;1256;23086;-44
2023/05/10 23:03:20;;;;;;;35.40;22.30;;;23.60;55.00;;;;;;221756;1263;22516;-46
2023/05/10 23:08:25;;;;;;;37.90;22.00;;;23.60;55.10;;;;;;221635;1266;22565;-45
2023/05/10 23:13:29;;;;;;;32.20;21.50;;;23.60;55.10;;;;;;223025;1260;23354;-46
2023/05/10 23:18:33;;;;;;;36.00;20.80;;;23.60;54.90;;;;;;221474;1264;22588;-45
2023/05/10 23:23:37;;;;;;;36.40;21.10;;;23.60;55.10;;;;;;221723;1259;22855;-46
2023/05/10 23:28:41;;;;;;;31.30;19.50;;;23.50;55.50;;;;;;221752;1256;23928;-46
2023/05/10 23:33:45;;;;;;;34.30;19.70;;;23.50;55.00;;;;;;221338;1263;25396;-45
2023/05/10 23:38:50;;;;;;;32.00;19.60;;;23.50;55.10;;;;;;221482;1261;22543;-46
2023/05/10 23:43:54;;;;;;;28.90;19.40;;;23.50;55.10;;;;;;221491;1266;22535;-45
2023/05/10 23:48:58;;;;;;;36.30;19.20;;;23.50;55.00;;;;;;229226;1256;23556;-45
2023/05/10 23:54:02;;;;;;;31.00;19.00;;;23.50;54.60;;;;;;229772;1263;22999;-47
2023/05/10 23:59:06;;;;;;;30.30;18.10;;;23.60;54.70;;;;;;224024;1266;25600;-43
